sensor_id;sensor_type;location;lat;lon;timestamp;P1;durP1;ratioP1;P2;durP2;ratioP2
31808;SDS011;18379;48.208;-1.518;2023-07-16T00:04:26;58.00;;;52.87;;
31808;SDS011;18379;48.208;-1.518;2023-07-16T00:09:27;57.07;;;52.07;;
31808;SDS011;18379;48.208;-1.518;2023-07-16T00:14:28;60.20;;;54.03;;
31808;SDS011;18379;48.208;-1.518;2023-07-16T00:19:29;57.57;;;51.93;;
31808;SDS011;18379;48.208;-1.518;2023-07-16T00:24:30;58.20;;;52.80;;
31808;SDS011;18379;48.208;-1.518;2023-07-16T00:29:31;57.97;;;52.27;;
31808;SDS011;18379;48.208;-1.518;2023-07-16T00:34:32;58.87;;;52.43;;
31808;SDS011;18379;48.208;-1.518;2023-07-16T00:39:32;56.87;;;51.23;;
31808;SDS011;18379;48.208;-1.518;2023-07-16T00:44:33;57.17;;;51.63;;
31808;SDS011;18379;48.208;-1.518;2023-07-16T00:49:34;57.87;;;52.00;;
31808;SDS011;18379;48.208;-1.518;2023-07-16T00:54:35;58.83;;;52.93;;
31808;SDS011;18379;48.208;-1.518;2023-07-16T00:59:36;57.50;;;52.00;;
31808;SDS011;18379;48.208;-1.518;2023-07-16T01:04:37;57.00;;;51.33;;
31808;SDS011;18379;48.208;-1.518;2023-07-16T01:09:39;59.03;;;52.83;;
31808;SDS011;18379;48.208;-1.518;2023-07-16T01:14:42;57.23;;;51.73;;
31808;SDS011;18379;48.208;-1.518;2023-07-16T01:19:43;58.57;;;52.33;;
31808;SDS011;18379;48.208;-1.518;2023-07-16T01:34:53;58.50;;;52.73;;
31808;SDS011;18379;48.208;-1.518;2023-07-16T01:39:54;58.00;;;50.60;;
31808;SDS011;18379;48.208;-1.518;2023-07-16T01:44:55;58.40;;;52.10;;
31808;SDS011;18379;48.208;-1.518;2023-07-16T01:49:56;61.20;;;52.20;;
31808;SDS011;18379;48.208;-1.518;2023-07-16T01:54:56;56.63;;;51.37;;
31808;SDS011;18379;48.208;-1.518;2023-07-16T01:59:57;58.03;;;51.97;;
31808;SDS011;18379;48.208;-1.518;2023-07-16T02:04:58;57.67;;;52.30;;
31808;SDS011;18379;48.208;-1.518;2023-07-16T02:09:59;57.63;;;51.73;;
31808;SDS011;18379;48.208;-1.518;2023-07-16T02:14:59;57.47;;;51.30;;
31808;SDS011;18379;48.208;-1.518;2023-07-16T02:20:00;58.43;;;52.40;;
31808;SDS011;18379;48.208;-1.518;2023-07-16T02:25:02;57.33;;;51.40;;
31808;SDS011;18379;48.208;-1.518;2023-07-16T02:30:03;58.20;;;52.00;;
31808;SDS011;18379;48.208;-1.518;2023-07-16T02:35:06;58.20;;;51.67;;
31808;SDS011;18379;48.208;-1.518;2023-07-16T02:40:07;58.63;;;52.53;;
31808;SDS011;18379;48.208;-1.518;2023-07-16T02:45:08;58.07;;;52.20;;
31808;SDS011;18379;48.208;-1.518;2023-07-16T02:50:09;58.57;;;52.73;;
31808;SDS011;18379;48.208;-1.518;2023-07-16T02:55:10;58.37;;;52.67;;
31808;SDS011;18379;48.208;-1.518;2023-07-16T03:00:11;57.57;;;51.63;;
31808;SDS011;18379;48.208;-1.518;2023-07-16T03:05:12;58.50;;;52.43;;
31808;SDS011;18379;48.208;-1.518;2023-07-16T03:10:13;58.93;;;52.70;;
31808;SDS011;18379;48.208;-1.518;2023-07-16T03:15:14;58.23;;;52.10;;
31808;SDS011;18379;48.208;-1.518;2023-07-16T03:20:14;59.27;;;52.97;;
31808;SDS011;18379;48.208;-1.518;2023-07-16T03:25:15;58.23;;;52.63;;
31808;SDS011;18379;48.208;-1.518;2023-07-16T03:30:16;58.67;;;52.77;;
31808;SDS011;18379;48.208;-1.518;2023-07-16T03:35:17;59.40;;;53.33;;
31808;SDS011;18379;48.208;-1.518;2023-07-16T03:40:22;60.33;;;52.43;;
31808;SDS011;18379;48.208;-1.518;2023-07-16T03:45:24;58.77;;;52.67;;
31808;SDS011;18379;48.208;-1.518;2023-07-16T03:50:25;59.07;;;52.93;;
31808;SDS011;18379;48.208;-1.518;2023-07-16T03:55:26;58.93;;;52.57;;
31808;SDS011;18379;48.208;-1.518;2023-07-16T04:00:27;59.87;;;53.53;;
31808;SDS011;18379;48.208;-1.518;2023-07-16T04:05:27;61.00;;;53.13;;
31808;SDS011;18379;48.208;-1.518;2023-07-16T04:10:28;59.80;;;54.10;;
31808;SDS011;18379;48.208;-1.518;2023-07-16T04:15:29;67.10;;;53.37;;
31808;SDS011;18379;48.208;-1.518;2023-07-16T04:20:30;60.87;;;54.20;;
31808;SDS011;18379;48.208;-1.518;2023-07-16T04:25:30;59.53;;;53.20;;
31808;SDS011;18379;48.208;-1.518;2023-07-16T04:30:31;58.27;;;52.47;;
31808;SDS011;18379;48.208;-1.518;2023-07-16T04:35:32;58.40;;;52.13;;
31808;SDS011;18379;48.208;-1.518;2023-07-16T04:40:34;59.10;;;52.73;;
31808;SDS011;18379;48.208;-1.518;2023-07-16T04:45:35;59.17;;;52.60;;
31808;SDS011;18379;48.208;-1.518;2023-07-16T04:50:36;59.43;;;53.37;;
31808;SDS011;18379;48.208;-1.518;2023-07-16T04:55:37;58.70;;;52.80;;
31808;SDS011;18379;48.208;-1.518;2023-07-16T05:00:39;58.20;;;52.87;;
31808;SDS011;18379;48.208;-1.518;2023-07-16T05:05:40;59.20;;;53.17;;
31808;SDS011;18379;48.208;-1.518;2023-07-16T05:10:41;61.83;;;53.87;;
31808;SDS011;18379;48.208;-1.518;2023-07-16T05:15:43;59.10;;;52.97;;
31808;SDS011;18379;48.208;-1.518;2023-07-16T05:20:46;61.07;;;54.97;;
31808;SDS011;18379;48.208;-1.518;2023-07-16T05:25:48;61.03;;;53.40;;
31808;SDS011;18379;48.208;-1.518;2023-07-16T05:30:57;59.40;;;53.53;;
31808;SDS011;18379;48.208;-1.518;2023-07-16T05:35:59;60.40;;;53.93;;
31808;SDS011;18379;48.208;-1.518;2023-07-16T05:41:01;59.80;;;53.70;;
31808;SDS011;18379;48.208;-1.518;2023-07-16T05:46:02;59.93;;;53.83;;
31808;SDS011;18379;48.208;-1.518;2023-07-16T05:51:05;60.20;;;53.83;;
31808;SDS011;18379;48.208;-1.518;2023-07-16T05:56:06;60.93;;;54.67;;
31808;SDS011;18379;48.208;-1.518;2023-07-16T06:01:06;60.03;;;54.03;;
31808;SDS011;18379;48.208;-1.518;2023-07-16T06:06:08;60.60;;;54.73;;
31808;SDS011;18379;48.208;-1.518;2023-07-16T06:11:09;60.23;;;54.23;;
31808;SDS011;18379;48.208;-1.518;2023-07-16T06:16:10;59.77;;;54.13;;
31808;SDS011;18379;48.208;-1.518;2023-07-16T06:21:11;59.47;;;53.73;;
31808;SDS011;18379;48.208;-1.518;2023-07-16T06:26:12;60.47;;;54.27;;
31808;SDS011;18379;48.208;-1.518;2023-07-16T06:31:12;59.63;;;54.10;;
31808;SDS011;18379;48.208;-1.518;2023-07-16T06:36:13;60.17;;;54.07;;
31808;SDS011;18379;48.208;-1.518;2023-07-16T06:41:14;58.63;;;53.27;;
31808;SDS011;18379;48.208;-1.518;2023-07-16T06:46:34;57.63;;;52.23;;
31808;SDS011;18379;48.208;-1.518;2023-07-16T06:51:35;59.57;;;53.53;;
31808;SDS011;18379;48.208;-1.518;2023-07-16T06:56:35;58.43;;;53.00;;
31808;SDS011;18379;48.208;-1.518;2023-07-16T07:01:36;59.47;;;53.50;;
31808;SDS011;18379;48.208;-1.518;2023-07-16T07:06:37;59.07;;;53.67;;
31808;SDS011;18379;48.208;-1.518;2023-07-16T07:11:38;58.37;;;53.20;;
31808;SDS011;18379;48.208;-1.518;2023-07-16T07:16:39;57.60;;;52.47;;
31808;SDS011;18379;48.208;-1.518;2023-07-16T07:21:40;57.70;;;52.73;;
31808;SDS011;18379;48.208;-1.518;2023-07-16T07:26:40;56.97;;;52.23;;
31808;SDS011;18379;48.208;-1.518;2023-07-16T07:31:41;57.20;;;51.93;;
31808;SDS011;18379;48.208;-1.518;2023-07-16T07:36:42;57.43;;;52.53;;
31808;SDS011;18379;48.208;-1.518;2023-07-16T07:41:42;57.97;;;52.93;;
31808;SDS011;18379;48.208;-1.518;2023-07-16T07:46:43;59.57;;;54.27;;
31808;SDS011;18379;48.208;-1.518;2023-07-16T07:51:44;57.83;;;52.87;;
31808;SDS011;18379;48.208;-1.518;2023-07-16T07:56:46;57.73;;;52.57;;
31808;SDS011;18379;48.208;-1.518;2023-07-16T08:01:47;57.33;;;52.47;;
31808;SDS011;18379;48.208;-1.518;2023-07-16T08:06:47;56.23;;;51.80;;
31808;SDS011;18379;48.208;-1.518;2023-07-16T08:11:48;58.03;;;52.77;;
31808;SDS011;18379;48.208;-1.518;2023-07-16T08:16:49;55.60;;;51.20;;
31808;SDS011;18379;48.208;-1.518;2023-07-16T08:21:51;54.50;;;50.60;;
31808;SDS011;18379;48.208;-1.518;2023-07-16T08:26:52;54.80;;;50.63;;
31808;SDS011;18379;48.208;-1.518;2023-07-16T08:31:53;55.40;;;51.33;;
31808;SDS011;18379;48.208;-1.518;2023-07-16T08:36:57;54.10;;;50.20;;
31808;SDS011;18379;48.208;-1.518;2023-07-16T08:41:59;54.30;;;50.33;;
31808;SDS011;18379;48.208;-1.518;2023-07-16T08:47:05;53.37;;;49.67;;
31808;SDS011;18379;48.208;-1.518;2023-07-16T08:52:07;53.07;;;49.50;;
31808;SDS011;18379;48.208;-1.518;2023-07-16T08:57:09;53.97;;;50.23;;
31808;SDS011;18379;48.208;-1.518;2023-07-16T09:02:11;54.47;;;50.50;;
31808;SDS011;18379;48.208;-1.518;2023-07-16T09:07:13;54.10;;;50.33;;
31808;SDS011;18379;48.208;-1.518;2023-07-16T09:12:14;54.53;;;50.73;;
31808;SDS011;18379;48.208;-1.518;2023-07-16T09:17:19;54.93;;;50.80;;
31808;SDS011;18379;48.208;-1.518;2023-07-16T09:22:24;55.37;;;51.27;;
31808;SDS011;18379;48.208;-1.518;2023-07-16T09:27:28;57.33;;;52.73;;
31808;SDS011;18379;48.208;-1.518;2023-07-16T09:32:38;54.73;;;51.00;;
31808;SDS011;18379;48.208;-1.518;2023-07-16T09:37:39;55.13;;;51.10;;
31808;SDS011;18379;48.208;-1.518;2023-07-16T09:42:42;56.27;;;51.57;;
31808;SDS011;18379;48.208;-1.518;2023-07-16T09:47:44;55.63;;;51.37;;
31808;SDS011;18379;48.208;-1.518;2023-07-16T09:52:45;56.80;;;52.37;;
31808;SDS011;18379;48.208;-1.518;2023-07-16T09:57:47;55.40;;;51.20;;
31808;SDS011;18379;48.208;-1.518;2023-07-16T10:02:50;54.80;;;50.70;;
31808;SDS011;18379;48.208;-1.518;2023-07-16T10:07:56;55.73;;;51.63;;
31808;SDS011;18379;48.208;-1.518;2023-07-16T10:13:01;55.67;;;51.37;;
31808;SDS011;18379;48.208;-1.518;2023-07-16T10:18:02;56.07;;;52.03;;
31808;SDS011;18379;48.208;-1.518;2023-07-16T10:23:10;55.00;;;50.87;;
31808;SDS011;18379;48.208;-1.518;2023-07-16T10:28:13;56.23;;;51.67;;
31808;SDS011;18379;48.208;-1.518;2023-07-16T10:33:13;55.93;;;52.03;;
31808;SDS011;18379;48.208;-1.518;2023-07-16T10:38:14;57.13;;;52.60;;
31808;SDS011;18379;48.208;-1.518;2023-07-16T10:43:15;56.80;;;52.60;;
31808;SDS011;18379;48.208;-1.518;2023-07-16T10:48:16;57.13;;;52.73;;
31808;SDS011;18379;48.208;-1.518;2023-07-16T10:53:17;57.03;;;52.73;;
31808;SDS011;18379;48.208;-1.518;2023-07-16T10:58:19;57.03;;;52.83;;
31808;SDS011;18379;48.208;-1.518;2023-07-16T11:03:20;57.23;;;52.93;;
31808;SDS011;18379;48.208;-1.518;2023-07-16T11:08:24;55.77;;;51.73;;
31808;SDS011;18379;48.208;-1.518;2023-07-16T11:13:28;54.13;;;50.13;;
31808;SDS011;18379;48.208;-1.518;2023-07-16T11:18:31;53.77;;;50.07;;
31808;SDS011;18379;48.208;-1.518;2023-07-16T11:23:35;52.20;;;48.90;;
31808;SDS011;18379;48.208;-1.518;2023-07-16T11:28:39;52.23;;;48.73;;
31808;SDS011;18379;48.208;-1.518;2023-07-16T11:33:42;52.23;;;48.83;;
31808;SDS011;18379;48.208;-1.518;2023-07-16T11:38:44;51.97;;;48.57;;
31808;SDS011;18379;48.208;-1.518;2023-07-16T11:43:45;52.23;;;48.83;;
31808;SDS011;18379;48.208;-1.518;2023-07-16T11:48:45;52.77;;;49.47;;
31808;SDS011;18379;48.208;-1.518;2023-07-16T11:53:46;52.27;;;48.97;;
31808;SDS011;18379;48.208;-1.518;2023-07-16T11:58:48;53.20;;;49.70;;
31808;SDS011;18379;48.208;-1.518;2023-07-16T12:03:50;52.60;;;49.30;;
31808;SDS011;18379;48.208;-1.518;2023-07-16T12:08:51;53.40;;;50.10;;
31808;SDS011;18379;48.208;-1.518;2023-07-16T12:13:51;53.33;;;50.00;;
31808;SDS011;18379;48.208;-1.518;2023-07-16T12:18:52;53.23;;;49.83;;
31808;SDS011;18379;48.208;-1.518;2023-07-16T12:23:53;52.60;;;49.30;;
31808;SDS011;18379;48.208;-1.518;2023-07-16T12:28:54;52.90;;;49.30;;
31808;SDS011;18379;48.208;-1.518;2023-07-16T12:33:55;53.27;;;49.67;;
31808;SDS011;18379;48.208;-1.518;2023-07-16T12:38:56;52.87;;;49.57;;
31808;SDS011;18379;48.208;-1.518;2023-07-16T12:43:57;53.37;;;50.03;;
31808;SDS011;18379;48.208;-1.518;2023-07-16T12:48:57;53.37;;;50.07;;
31808;SDS011;18379;48.208;-1.518;2023-07-16T12:53:59;53.60;;;50.20;;
31808;SDS011;18379;48.208;-1.518;2023-07-16T12:59:01;53.43;;;50.03;;
31808;SDS011;18379;48.208;-1.518;2023-07-16T13:04:02;53.97;;;50.50;;
31808;SDS011;18379;48.208;-1.518;2023-07-16T13:09:03;53.78;;;50.40;;
31808;SDS011;18379;48.208;-1.518;2023-07-16T13:14:05;53.90;;;50.23;;
31808;SDS011;18379;48.208;-1.518;2023-07-16T13:19:06;54.57;;;51.07;;
31808;SDS011;18379;48.208;-1.518;2023-07-16T13:24:06;54.27;;;50.77;;
31808;SDS011;18379;48.208;-1.518;2023-07-16T13:29:07;54.67;;;51.07;;
31808;SDS011;18379;48.208;-1.518;2023-07-16T13:34:08;54.37;;;50.67;;
31808;SDS011;18379;48.208;-1.518;2023-07-16T13:39:09;54.70;;;51.17;;
31808;SDS011;18379;48.208;-1.518;2023-07-16T13:44:12;54.45;;;50.72;;
31808;SDS011;18379;48.208;-1.518;2023-07-16T13:49:13;54.70;;;51.10;;
31808;SDS011;18379;48.208;-1.518;2023-07-16T13:54:13;54.80;;;51.13;;
31808;SDS011;18379;48.208;-1.518;2023-07-16T13:59:14;57.40;;;52.10;;
31808;SDS011;18379;48.208;-1.518;2023-07-16T14:04:15;55.10;;;51.43;;
31808;SDS011;18379;48.208;-1.518;2023-07-16T14:09:16;55.50;;;51.70;;
31808;SDS011;18379;48.208;-1.518;2023-07-16T14:14:17;56.03;;;52.23;;
31808;SDS011;18379;48.208;-1.518;2023-07-16T14:19:18;55.90;;;52.00;;
31808;SDS011;18379;48.208;-1.518;2023-07-16T14:24:19;56.22;;;52.42;;
31808;SDS011;18379;48.208;-1.518;2023-07-16T14:29:20;55.73;;;51.83;;
31808;SDS011;18379;48.208;-1.518;2023-07-16T14:34:20;55.67;;;51.87;;
31808;SDS011;18379;48.208;-1.518;2023-07-16T14:39:21;55.90;;;52.00;;
31808;SDS011;18379;48.208;-1.518;2023-07-16T14:44:22;54.80;;;51.23;;
31808;SDS011;18379;48.208;-1.518;2023-07-16T14:49:23;54.97;;;51.37;;
31808;SDS011;18379;48.208;-1.518;2023-07-16T14:54:23;56.07;;;52.23;;
31808;SDS011;18379;48.208;-1.518;2023-07-16T14:59:24;56.27;;;52.47;;
31808;SDS011;18379;48.208;-1.518;2023-07-16T15:04:25;57.00;;;52.83;;
31808;SDS011;18379;48.208;-1.518;2023-07-16T15:09:26;57.78;;;53.47;;
31808;SDS011;18379;48.208;-1.518;2023-07-16T15:14:27;57.20;;;53.40;;
31808;SDS011;18379;48.208;-1.518;2023-07-16T15:19:28;57.38;;;53.17;;
31808;SDS011;18379;48.208;-1.518;2023-07-16T15:24:29;57.92;;;53.88;;
31808;SDS011;18379;48.208;-1.518;2023-07-16T15:29:30;57.47;;;53.20;;
31808;SDS011;18379;48.208;-1.518;2023-07-16T15:34:31;56.70;;;52.80;;
31808;SDS011;18379;48.208;-1.518;2023-07-16T15:39:32;57.33;;;53.17;;
31808;SDS011;18379;48.208;-1.518;2023-07-16T15:44:33;56.00;;;51.87;;
31808;SDS011;18379;48.208;-1.518;2023-07-16T15:49:34;56.10;;;52.05;;
31808;SDS011;18379;48.208;-1.518;2023-07-16T15:54:35;56.77;;;52.50;;
31808;SDS011;18379;48.208;-1.518;2023-07-16T15:59:36;56.22;;;52.22;;
31808;SDS011;18379;48.208;-1.518;2023-07-16T16:04:36;56.57;;;52.57;;
31808;SDS011;18379;48.208;-1.518;2023-07-16T16:09:37;55.60;;;51.80;;
31808;SDS011;18379;48.208;-1.518;2023-07-16T16:14:38;55.20;;;51.50;;
31808;SDS011;18379;48.208;-1.518;2023-07-16T16:19:39;56.03;;;52.13;;
31808;SDS011;18379;48.208;-1.518;2023-07-16T16:24:41;55.63;;;51.83;;
31808;SDS011;18379;48.208;-1.518;2023-07-16T16:29:42;56.07;;;51.67;;
31808;SDS011;18379;48.208;-1.518;2023-07-16T16:34:42;55.00;;;51.13;;
31808;SDS011;18379;48.208;-1.518;2023-07-16T16:39:43;54.63;;;50.53;;
31808;SDS011;18379;48.208;-1.518;2023-07-16T16:44:44;56.20;;;52.00;;
31808;SDS011;18379;48.208;-1.518;2023-07-16T16:49:45;55.50;;;51.33;;
31808;SDS011;18379;48.208;-1.518;2023-07-16T16:54:46;55.30;;;51.30;;
31808;SDS011;18379;48.208;-1.518;2023-07-16T16:59:46;54.83;;;51.03;;
31808;SDS011;18379;48.208;-1.518;2023-07-16T17:04:47;53.77;;;50.07;;
31808;SDS011;18379;48.208;-1.518;2023-07-16T17:09:49;55.27;;;51.27;;
31808;SDS011;18379;48.208;-1.518;2023-07-16T17:14:50;53.93;;;50.43;;
31808;SDS011;18379;48.208;-1.518;2023-07-16T17:19:53;56.33;;;52.10;;
31808;SDS011;18379;48.208;-1.518;2023-07-16T17:24:55;54.87;;;51.00;;
31808;SDS011;18379;48.208;-1.518;2023-07-16T17:29:56;56.30;;;52.17;;
31808;SDS011;18379;48.208;-1.518;2023-07-16T17:35:00;54.97;;;51.13;;
31808;SDS011;18379;48.208;-1.518;2023-07-16T17:40:10;54.33;;;50.60;;
31808;SDS011;18379;48.208;-1.518;2023-07-16T17:45:12;53.17;;;49.70;;
31808;SDS011;18379;48.208;-1.518;2023-07-16T17:50:16;53.80;;;50.03;;
31808;SDS011;18379;48.208;-1.518;2023-07-16T17:55:23;54.40;;;50.37;;
31808;SDS011;18379;48.208;-1.518;2023-07-16T18:00:30;57.70;;;53.50;;
31808;SDS011;18379;48.208;-1.518;2023-07-16T18:11:21;53.93;;;50.23;;
31808;SDS011;18379;48.208;-1.518;2023-07-16T18:16:42;61.87;;;56.70;;
31808;SDS011;18379;48.208;-1.518;2023-07-16T18:21:50;56.63;;;52.50;;
31808;SDS011;18379;48.208;-1.518;2023-07-16T18:26:59;56.53;;;52.10;;
31808;SDS011;18379;48.208;-1.518;2023-07-16T18:32:07;54.73;;;50.53;;
31808;SDS011;18379;48.208;-1.518;2023-07-16T18:37:12;53.93;;;50.33;;
31808;SDS011;18379;48.208;-1.518;2023-07-16T18:42:23;53.80;;;50.20;;
31808;SDS011;18379;48.208;-1.518;2023-07-16T18:47:26;52.83;;;49.33;;
31808;SDS011;18379;48.208;-1.518;2023-07-16T18:52:35;54.13;;;50.13;;
31808;SDS011;18379;48.208;-1.518;2023-07-16T18:57:54;54.33;;;50.63;;
31808;SDS011;18379;48.208;-1.518;2023-07-16T19:02:55;54.80;;;50.83;;
31808;SDS011;18379;48.208;-1.518;2023-07-16T19:07:55;53.07;;;49.43;;
31808;SDS011;18379;48.208;-1.518;2023-07-16T19:12:56;52.40;;;48.93;;
31808;SDS011;18379;48.208;-1.518;2023-07-16T19:17:57;52.47;;;49.03;;
31808;SDS011;18379;48.208;-1.518;2023-07-16T19:22:58;51.83;;;48.43;;
31808;SDS011;18379;48.208;-1.518;2023-07-16T19:27:59;52.47;;;49.03;;
31808;SDS011;18379;48.208;-1.518;2023-07-16T19:33:00;51.63;;;48.37;;
31808;SDS011;18379;48.208;-1.518;2023-07-16T19:38:00;52.17;;;48.77;;
31808;SDS011;18379;48.208;-1.518;2023-07-16T19:43:04;51.83;;;48.20;;
31808;SDS011;18379;48.208;-1.518;2023-07-16T19:48:06;52.10;;;48.53;;
31808;SDS011;18379;48.208;-1.518;2023-07-16T19:53:07;52.50;;;48.70;;
31808;SDS011;18379;48.208;-1.518;2023-07-16T19:58:08;51.70;;;48.33;;
31808;SDS011;18379;48.208;-1.518;2023-07-16T20:03:12;51.53;;;48.20;;
31808;SDS011;18379;48.208;-1.518;2023-07-16T20:08:41;51.83;;;48.43;;
31808;SDS011;18379;48.208;-1.518;2023-07-16T20:13:45;51.37;;;48.10;;
31808;SDS011;18379;48.208;-1.518;2023-07-16T20:19:28;51.03;;;47.93;;
31808;SDS011;18379;48.208;-1.518;2023-07-16T20:24:30;52.70;;;49.40;;
31808;SDS011;18379;48.208;-1.518;2023-07-16T20:29:31;50.70;;;47.50;;
31808;SDS011;18379;48.208;-1.518;2023-07-16T20:34:32;51.70;;;48.40;;
31808;SDS011;18379;48.208;-1.518;2023-07-16T20:39:33;51.27;;;47.47;;
31808;SDS011;18379;48.208;-1.518;2023-07-16T20:44:36;50.80;;;47.40;;
31808;SDS011;18379;48.208;-1.518;2023-07-16T20:49:38;51.03;;;47.63;;
31808;SDS011;18379;48.208;-1.518;2023-07-16T20:54:39;50.73;;;47.60;;
31808;SDS011;18379;48.208;-1.518;2023-07-16T20:59:39;50.23;;;46.93;;
31808;SDS011;18379;48.208;-1.518;2023-07-16T21:04:40;50.53;;;47.33;;
31808;SDS011;18379;48.208;-1.518;2023-07-16T21:09:41;50.30;;;47.17;;
31808;SDS011;18379;48.208;-1.518;2023-07-16T21:14:42;49.63;;;46.43;;
31808;SDS011;18379;48.208;-1.518;2023-07-16T21:19:42;50.13;;;47.03;;
31808;SDS011;18379;48.208;-1.518;2023-07-16T21:24:43;49.50;;;46.50;;
31808;SDS011;18379;48.208;-1.518;2023-07-16T21:29:44;50.53;;;47.17;;
31808;SDS011;18379;48.208;-1.518;2023-07-16T21:39:46;51.53;;;47.93;;
31808;SDS011;18379;48.208;-1.518;2023-07-16T21:44:47;51.40;;;47.97;;
31808;SDS011;18379;48.208;-1.518;2023-07-16T21:49:54;50.73;;;47.33;;
31808;SDS011;18379;48.208;-1.518;2023-07-16T21:55:00;50.53;;;47.10;;
31808;SDS011;18379;48.208;-1.518;2023-07-16T22:00:08;49.90;;;46.80;;
31808;SDS011;18379;48.208;-1.518;2023-07-16T22:05:25;50.13;;;47.07;;
31808;SDS011;18379;48.208;-1.518;2023-07-16T22:10:30;49.37;;;46.00;;
31808;SDS011;18379;48.208;-1.518;2023-07-16T22:16:03;49.80;;;46.67;;
31808;SDS011;18379;48.208;-1.518;2023-07-16T22:21:04;50.17;;;46.63;;
31808;SDS011;18379;48.208;-1.518;2023-07-16T22:26:09;49.70;;;46.57;;
31808;SDS011;18379;48.208;-1.518;2023-07-16T22:31:10;49.87;;;46.43;;
31808;SDS011;18379;48.208;-1.518;2023-07-16T22:36:20;49.63;;;46.53;;
31808;SDS011;18379;48.208;-1.518;2023-07-16T22:41:21;49.07;;;46.07;;
31808;SDS011;18379;48.208;-1.518;2023-07-16T22:46:27;49.77;;;46.23;;
31808;SDS011;18379;48.208;-1.518;2023-07-16T22:51:28;50.53;;;46.93;;
31808;SDS011;18379;48.208;-1.518;2023-07-16T22:56:29;48.93;;;45.83;;
31808;SDS011;18379;48.208;-1.518;2023-07-16T23:01:37;49.17;;;45.87;;
31808;SDS011;18379;48.208;-1.518;2023-07-16T23:06:45;48.63;;;45.67;;
31808;SDS011;18379;48.208;-1.518;2023-07-16T23:11:50;49.00;;;46.00;;
31808;SDS011;18379;48.208;-1.518;2023-07-16T23:16:59;49.17;;;46.03;;
31808;SDS011;18379;48.208;-1.518;2023-07-16T23:22:00;49.43;;;46.10;;
31808;SDS011;18379;48.208;-1.518;2023-07-16T23:27:07;49.03;;;45.80;;
31808;SDS011;18379;48.208;-1.518;2023-07-16T23:32:14;48.97;;;45.70;;
31808;SDS011;18379;48.208;-1.518;2023-07-16T23:37:15;49.33;;;45.53;;
31808;SDS011;18379;48.208;-1.518;2023-07-16T23:42:19;50.20;;;46.80;;
31808;SDS011;18379;48.208;-1.518;2023-07-16T23:47:23;48.13;;;45.23;;
31808;SDS011;18379;48.208;-1.518;2023-07-16T23:52:39;49.30;;;46.03;;
31808;SDS011;18379;48.208;-1.518;2023-07-16T23:57:43;48.40;;;45.40;;
